createdAt,value
2023-03-31T00:02:01.834Z,73.31
2023-03-31T00:04:31.607Z,72.94
2023-03-31T00:07:00.400Z,72.93
2023-03-31T00:09:29.385Z,73.37
2023-03-31T00:11:58.173Z,73.38
2023-03-31T00:14:27.058Z,72.91
2023-03-31T00:16:56.142Z,72.96
2023-03-31T00:19:25.047Z,73.54
2023-03-31T00:21:54.130Z,73.54
2023-03-31T00:24:23.407Z,73.15
2023-03-31T00:26:52.273Z,73.57
2023-03-31T00:29:22.345Z,73.64
2023-03-31T00:31:51.640Z,73.45
2023-03-31T00:34:22.608Z,73.41
2023-03-31T00:36:55.828Z,73.27
2023-03-31T00:39:25.030Z,73.63
2023-03-31T00:41:53.972Z,73.43
2023-03-31T00:44:29.275Z,73.58
2023-03-31T00:47:03.422Z,73.30
2023-03-31T00:49:35.720Z,73.91
2023-03-31T00:52:12.929Z,73.08
2023-03-31T00:54:44.122Z,73.34
2023-03-31T00:57:14.670Z,73.82
2023-03-31T00:59:47.890Z,73.72
2023-03-31T01:02:17.858Z,74.11
2023-03-31T01:04:49.774Z,73.45
2023-03-31T01:07:25.633Z,73.42
2023-03-31T01:09:59.989Z,73.20
2023-03-31T01:12:32.795Z,73.75
2023-03-31T01:15:03.832Z,74.05
2023-03-31T01:17:34.153Z,73.92
2023-03-31T01:20:18.720Z,73.86
2023-03-31T01:23:07.419Z,73.76
2023-03-31T01:26:17.872Z,73.87
2023-03-31T01:28:56.961Z,73.77
2023-03-31T01:31:54.438Z,74.10
2023-03-31T01:34:59.785Z,73.91
2023-03-31T01:38:26.506Z,73.29
2023-03-31T01:41:24.555Z,73.58
2023-03-31T01:44:04.732Z,73.88
2023-03-31T01:46:36.552Z,74.03
2023-03-31T01:49:17.878Z,73.96
2023-03-31T01:51:55.486Z,74.10
2023-03-31T01:54:33.585Z,74.10
2023-03-31T01:57:09.849Z,73.57
2023-03-31T01:59:45.797Z,73.64
2023-03-31T02:02:22.484Z,73.54
2023-03-31T02:04:56.935Z,73.53
2023-03-31T02:07:34.497Z,73.98
2023-03-31T02:10:08.303Z,73.70
2023-03-31T02:12:40.884Z,74.28
2023-03-31T02:15:14.773Z,74.03
2023-03-31T02:17:48.487Z,74.16
2023-03-31T02:20:23.359Z,74.15
2023-03-31T02:22:55.299Z,73.80
2023-03-31T02:25:28.795Z,74.13
2023-03-31T02:28:00.241Z,74.44
2023-03-31T02:30:37.011Z,73.73
2023-03-31T02:33:06.072Z,73.96
2023-03-31T02:35:36.334Z,74.40
2023-03-31T02:38:06.330Z,73.98
2023-03-31T02:40:37.644Z,74.12
2023-03-31T02:43:07.781Z,74.15
2023-03-31T02:45:48.820Z,74.35
2023-03-31T02:48:22.909Z,74.30
2023-03-31T02:51:07.810Z,74.26
2023-03-31T02:53:51.525Z,74.28
2023-03-31T02:56:37.975Z,74.18
2023-03-31T02:59:24.477Z,73.69
2023-03-31T03:02:06.669Z,74.49
2023-03-31T03:04:51.794Z,73.79
2023-03-31T03:07:34.572Z,74.32
2023-03-31T03:10:09.663Z,74.19
2023-03-31T03:12:49.046Z,73.99
2023-03-31T03:15:26.636Z,74.35
2023-03-31T03:17:56.692Z,74.30
2023-03-31T03:20:26.270Z,74.58
2023-03-31T03:22:55.074Z,74.47
2023-03-31T03:25:25.325Z,74.47
2023-03-31T03:27:54.100Z,73.94
2023-03-31T03:30:25.746Z,74.02
2023-03-31T03:32:55.696Z,74.41
2023-03-31T03:35:24.842Z,74.28
2023-03-31T03:37:53.570Z,74.53
2023-03-31T03:40:26.382Z,74.68
2023-03-31T03:42:55.714Z,74.37
2023-03-31T03:45:25.160Z,73.86
2023-03-31T03:47:55.872Z,74.57
2023-03-31T03:50:27.560Z,74.51
2023-03-31T03:52:56.589Z,74.08
2023-03-31T03:55:26.708Z,73.93
2023-03-31T03:57:55.584Z,73.98
2023-03-31T04:00:25.145Z,74.05
2023-03-31T04:02:53.997Z,73.96
2023-03-31T04:05:27.302Z,74.27
2023-03-31T04:07:56.378Z,74.17
2023-03-31T04:10:25.483Z,74.06
2023-03-31T04:12:54.472Z,74.31
2023-03-31T04:15:25.027Z,74.57
2023-03-31T04:17:54.180Z,74.40
2023-03-31T04:20:27.196Z,74.73
2023-03-31T04:22:56.044Z,74.47
2023-03-31T04:25:25.516Z,74.25
2023-03-31T04:27:54.450Z,74.49
2023-03-31T04:30:30.138Z,74.45
2023-03-31T04:33:02.107Z,74.64
2023-03-31T04:35:50.030Z,74.54
2023-03-31T04:38:26.729Z,74.22
2023-03-31T04:40:56.232Z,74.72
2023-03-31T04:43:25.462Z,74.72
2023-03-31T04:45:55.845Z,74.81
2023-03-31T04:48:25.229Z,74.57
2023-03-31T04:50:54.222Z,74.38
2023-03-31T04:53:24.422Z,75.09
2023-03-31T04:55:53.651Z,74.73
2023-03-31T04:58:23.766Z,75.10
2023-03-31T05:00:53.438Z,75.00
2023-03-31T05:03:25.169Z,74.68
2023-03-31T05:05:54.703Z,74.90
2023-03-31T05:08:26.664Z,74.92
2023-03-31T05:10:55.895Z,75.47
2023-03-31T05:13:25.923Z,74.96
2023-03-31T05:15:54.960Z,75.17
2023-03-31T05:18:25.039Z,75.07
2023-03-31T05:20:54.246Z,75.22
2023-03-31T05:23:26.403Z,74.98
2023-03-31T05:25:58.492Z,75.49
2023-03-31T05:28:31.304Z,75.02
2023-03-31T05:31:02.192Z,75.22
2023-03-31T05:33:32.140Z,75.29
2023-03-31T05:36:01.443Z,75.55
2023-03-31T05:38:31.278Z,75.35
2023-03-31T05:41:02.971Z,75.06
2023-03-31T05:43:31.985Z,74.76
2023-03-31T05:46:01.689Z,75.03
2023-03-31T05:48:30.619Z,75.05
2023-03-31T05:51:01.159Z,75.55
2023-03-31T05:53:30.144Z,75.21
2023-03-31T05:56:01.456Z,74.86
2023-03-31T05:58:31.054Z,75.08
2023-03-31T06:01:06.406Z,75.20
2023-03-31T06:03:36.587Z,75.46
2023-03-31T06:06:08.616Z,75.31
2023-03-31T06:08:38.058Z,74.71
2023-03-31T06:11:09.379Z,75.46
2023-03-31T06:13:39.579Z,74.75
2023-03-31T06:16:11.040Z,75.19
2023-03-31T06:18:41.086Z,74.91
2023-03-31T06:21:12.450Z,75.33
2023-03-31T06:23:43.935Z,74.57
2023-03-31T06:26:20.726Z,74.24
2023-03-31T06:28:52.456Z,74.15
2023-03-31T06:31:24.982Z,74.91
2023-03-31T06:33:54.271Z,74.14
2023-03-31T06:36:24.309Z,74.93
2023-03-31T06:38:53.570Z,74.43
2023-03-31T06:41:25.930Z,74.96
2023-03-31T06:43:54.998Z,74.47
2023-03-31T06:46:26.055Z,73.74
2023-03-31T06:48:55.193Z,74.71
2023-03-31T06:51:25.047Z,74.06
2023-03-31T06:53:53.911Z,74.39
2023-03-31T06:56:26.804Z,74.17
2023-03-31T06:58:55.967Z,74.04
2023-03-31T07:01:25.321Z,74.17
2023-03-31T07:03:54.159Z,74.32
2023-03-31T07:06:26.067Z,74.08
2023-03-31T07:08:55.077Z,74.01
2023-03-31T07:11:25.727Z,73.41
2023-03-31T07:13:54.617Z,72.31
2023-03-31T07:16:26.212Z,72.58
2023-03-31T07:18:59.086Z,72.59
2023-03-31T07:21:28.199Z,72.73
2023-03-31T07:23:58.137Z,71.95
2023-03-31T07:26:27.993Z,72.17
2023-03-31T07:28:57.444Z,72.52
2023-03-31T07:31:27.090Z,71.60
2023-03-31T07:33:56.515Z,71.68
2023-03-31T07:36:25.847Z,72.36
2023-03-31T07:38:54.902Z,72.21
2023-03-31T07:41:25.676Z,71.87
2023-03-31T07:43:54.534Z,71.92
2023-03-31T07:46:25.848Z,71.61
2023-03-31T07:48:57.774Z,71.90
2023-03-31T07:51:28.031Z,71.18
2023-03-31T07:53:57.115Z,70.92
2023-03-31T07:56:26.117Z,72.12
2023-03-31T07:58:57.497Z,71.09
2023-03-31T08:01:29.004Z,71.65
2023-03-31T08:03:58.802Z,71.30
2023-03-31T08:06:29.459Z,71.02
2023-03-31T08:09:01.042Z,71.56
2023-03-31T08:11:30.390Z,70.94
2023-03-31T08:14:00.254Z,71.26
2023-03-31T08:16:33.794Z,71.18
2023-03-31T08:19:04.272Z,71.07
2023-03-31T08:21:34.068Z,71.27
2023-03-31T08:24:03.143Z,70.76
2023-03-31T08:26:34.579Z,70.87
2023-03-31T08:29:03.968Z,70.70
2023-03-31T08:31:42.526Z,70.95
2023-03-31T08:34:11.334Z,70.78
2023-03-31T08:36:40.682Z,70.61
2023-03-31T08:39:09.631Z,69.88
2023-03-31T08:41:52.000Z,69.30
2023-03-31T08:44:28.006Z,69.80
2023-03-31T08:47:00.248Z,69.75
2023-03-31T08:49:32.854Z,68.80
2023-03-31T08:52:04.860Z,68.67
2023-03-31T08:54:37.245Z,67.57
2023-03-31T08:57:12.998Z,67.26
2023-03-31T08:59:43.719Z,67.17
2023-03-31T09:02:21.859Z,66.70
2023-03-31T09:05:28.900Z,66.89
2023-03-31T09:08:07.415Z,66.55
2023-03-31T09:10:49.526Z,66.55
2023-03-31T09:13:49.848Z,66.49
2023-03-31T09:16:25.342Z,66.60
2023-03-31T09:18:58.993Z,66.18
2023-03-31T09:21:32.499Z,66.61
2023-03-31T09:24:06.869Z,66.34
2023-03-31T09:26:40.632Z,66.11
2023-03-31T09:29:18.794Z,66.11
2023-03-31T09:31:48.245Z,65.49
2023-03-31T09:34:22.457Z,65.69
2023-03-31T09:36:52.430Z,65.87
2023-03-31T09:39:21.690Z,65.41
2023-03-31T09:41:53.428Z,65.06
2023-03-31T09:44:31.737Z,64.86
2023-03-31T09:47:03.043Z,64.95
2023-03-31T09:49:36.027Z,64.98
2023-03-31T09:54:46.661Z,64.46
2023-03-31T09:57:26.131Z,64.48
2023-03-31T10:00:07.801Z,64.27
2023-03-31T10:02:45.094Z,64.43
2023-03-31T10:05:31.730Z,63.96
2023-03-31T10:08:22.364Z,63.53
2023-03-31T10:10:54.792Z,63.41
2023-03-31T10:13:28.670Z,63.17
2023-03-31T10:16:02.491Z,63.70
2023-03-31T10:18:36.916Z,63.72
2023-03-31T10:21:15.931Z,63.81
2023-03-31T10:23:48.060Z,63.53
2023-03-31T10:26:21.091Z,63.64
2023-03-31T10:28:52.017Z,63.33
2023-03-31T10:31:24.745Z,63.22
2023-03-31T10:33:55.255Z,63.08
2023-03-31T10:36:27.856Z,63.24
2023-03-31T10:38:57.974Z,62.88
2023-03-31T10:41:29.907Z,62.92
2023-03-31T10:44:01.710Z,62.34
2023-03-31T10:46:50.730Z,62.23
2023-03-31T10:49:27.189Z,62.25
2023-03-31T10:51:58.330Z,62.04
2023-03-31T10:54:27.674Z,61.83
2023-03-31T10:57:02.786Z,61.77
2023-03-31T10:59:43.984Z,61.62
2023-03-31T11:02:47.879Z,61.58
2023-03-31T11:05:28.052Z,61.45
2023-03-31T11:08:15.730Z,61.32
2023-03-31T11:11:01.084Z,61.05
2023-03-31T11:13:38.265Z,60.66
2023-03-31T11:16:18.734Z,60.60
2023-03-31T11:19:03.303Z,61.09
2023-03-31T11:21:43.934Z,60.64
2023-03-31T11:24:25.827Z,60.53
2023-03-31T11:27:00.256Z,60.54
2023-03-31T11:29:37.743Z,60.15
2023-03-31T11:32:33.298Z,60.00
2023-03-31T11:35:17.337Z,59.68
2023-03-31T11:38:01.802Z,60.20
2023-03-31T11:40:47.370Z,59.36
2023-03-31T11:43:26.573Z,59.64
2023-03-31T11:46:01.671Z,59.41
2023-03-31T11:48:39.627Z,58.98
2023-03-31T11:51:16.608Z,58.94
2023-03-31T11:53:47.052Z,59.16
2023-03-31T11:56:17.661Z,59.17
2023-03-31T11:58:52.646Z,59.32
2023-03-31T12:01:28.872Z,59.14
2023-03-31T12:04:05.879Z,58.99
2023-03-31T12:06:40.278Z,58.88
2023-03-31T12:09:17.450Z,59.20
2023-03-31T12:11:52.397Z,58.87
2023-03-31T12:14:33.377Z,59.04
2023-03-31T12:17:11.010Z,58.50
2023-03-31T12:19:47.688Z,58.27
2023-03-31T12:22:22.149Z,58.57
2023-03-31T12:24:52.572Z,58.36
2023-03-31T12:27:39.645Z,58.12
2023-03-31T12:30:13.473Z,57.97
2023-03-31T12:32:48.221Z,58.19
2023-03-31T12:35:24.890Z,57.92
2023-03-31T12:38:25.260Z,57.94
2023-03-31T12:41:06.992Z,57.07
2023-03-31T12:43:56.690Z,57.51
2023-03-31T12:46:48.501Z,57.71
2023-03-31T12:49:31.216Z,57.56
2023-03-31T12:52:05.311Z,57.43
2023-03-31T12:54:54.032Z,56.96
2023-03-31T12:57:32.587Z,56.95
2023-03-31T13:00:22.177Z,56.66
2023-03-31T13:03:14.230Z,56.71
2023-03-31T13:05:49.833Z,56.49
2023-03-31T13:08:52.889Z,56.86
2023-03-31T13:11:36.157Z,56.62
2023-03-31T13:14:12.444Z,56.96
2023-03-31T13:16:41.527Z,56.58
2023-03-31T13:19:27.058Z,56.99
2023-03-31T13:21:57.810Z,57.60
2023-03-31T13:24:29.530Z,57.53
2023-03-31T13:27:01.109Z,57.68
2023-03-31T13:29:41.977Z,57.51
2023-03-31T13:32:25.250Z,57.78
2023-03-31T13:35:03.569Z,57.86
2023-03-31T13:37:45.949Z,57.76
2023-03-31T13:40:37.748Z,58.09
2023-03-31T13:43:26.803Z,57.90
2023-03-31T13:46:10.195Z,58.21
2023-03-31T13:48:48.297Z,57.67
2023-03-31T13:51:36.409Z,57.88
2023-03-31T13:54:41.346Z,58.23
2023-03-31T13:57:48.020Z,57.98
2023-03-31T14:00:37.637Z,57.95
2023-03-31T14:03:29.852Z,58.14
2023-03-31T14:06:02.170Z,58.36
2023-03-31T14:08:42.757Z,57.95
2023-03-31T14:11:23.140Z,57.89
2023-03-31T14:14:13.280Z,58.22
2023-03-31T14:16:46.467Z,58.05
2023-03-31T14:19:30.303Z,57.85
2023-03-31T14:22:08.101Z,58.41
2023-03-31T14:24:45.013Z,57.91
2023-03-31T14:27:28.772Z,58.03
2023-03-31T14:30:05.903Z,58.06
2023-03-31T14:32:45.736Z,57.99
2023-03-31T14:35:31.902Z,57.79
2023-03-31T14:38:06.215Z,58.26
2023-03-31T14:40:48.740Z,58.18
2023-03-31T14:43:22.964Z,58.40
2023-03-31T14:46:02.729Z,58.24
2023-03-31T14:48:34.366Z,57.68
2023-03-31T14:51:09.453Z,58.38
2023-03-31T14:53:38.836Z,58.36
2023-03-31T14:56:10.758Z,58.69
2023-03-31T14:58:44.371Z,58.59
2023-03-31T15:01:20.647Z,57.95
2023-03-31T15:03:50.533Z,58.41
2023-03-31T15:06:20.001Z,58.56
2023-03-31T15:08:49.623Z,58.55
2023-03-31T15:11:21.410Z,58.40
2023-03-31T15:14:04.394Z,58.47
2023-03-31T15:16:41.296Z,58.36
2023-03-31T15:19:16.364Z,58.05
2023-03-31T15:21:46.580Z,58.03
2023-03-31T15:24:15.623Z,58.36
2023-03-31T15:26:51.226Z,58.68
2023-03-31T15:29:31.239Z,58.49
2023-03-31T15:32:01.365Z,58.80
2023-03-31T15:34:33.121Z,59.70
2023-03-31T15:37:02.994Z,60.48
2023-03-31T15:39:36.360Z,60.02
2023-03-31T15:42:07.743Z,60.04
2023-03-31T15:44:45.959Z,60.43
2023-03-31T15:47:19.105Z,60.93
2023-03-31T15:49:57.665Z,61.60
2023-03-31T15:52:34.050Z,61.83
2023-03-31T15:55:28.540Z,61.72
2023-03-31T15:57:59.877Z,61.96
2023-03-31T16:00:48.110Z,61.65
2023-03-31T16:03:24.147Z,62.68
2023-03-31T16:05:56.575Z,62.42
2023-03-31T16:08:32.043Z,62.25
2023-03-31T16:11:08.557Z,61.87
2023-03-31T16:13:41.768Z,62.57
2023-03-31T16:16:13.225Z,62.61
2023-03-31T16:18:46.224Z,62.64
2023-03-31T16:21:23.247Z,63.40
2023-03-31T16:23:59.415Z,63.42
2023-03-31T16:26:29.344Z,63.08
2023-03-31T16:29:01.161Z,63.63
2023-03-31T16:31:34.464Z,62.73
2023-03-31T16:34:05.856Z,62.98
2023-03-31T16:36:35.858Z,63.17
2023-03-31T16:39:06.218Z,63.67
2023-03-31T16:41:40.009Z,64.42
2023-03-31T16:44:16.132Z,64.31
2023-03-31T16:46:45.551Z,64.18
2023-03-31T16:49:14.658Z,64.70
2023-03-31T16:51:44.298Z,64.77
2023-03-31T16:54:13.260Z,65.01
2023-03-31T16:56:42.588Z,65.10
2023-03-31T16:59:11.804Z,64.28
2023-03-31T17:01:41.863Z,65.26
2023-03-31T17:04:11.100Z,64.14
2023-03-31T17:06:40.649Z,65.11
2023-03-31T17:09:12.766Z,65.45
2023-03-31T17:11:48.626Z,65.09
2023-03-31T17:14:18.859Z,64.57
2023-03-31T17:16:50.031Z,65.62
2023-03-31T17:19:22.394Z,64.88
2023-03-31T17:21:51.665Z,65.84
2023-03-31T17:24:27.285Z,64.99
2023-03-31T17:26:57.542Z,65.67
2023-03-31T17:29:29.499Z,65.16
2023-03-31T17:31:59.384Z,66.06
2023-03-31T17:34:31.269Z,65.76
2023-03-31T17:37:02.050Z,66.22
2023-03-31T17:39:32.846Z,66.55
2023-03-31T17:42:03.681Z,66.56
2023-03-31T17:44:32.623Z,65.88
2023-03-31T17:47:02.489Z,66.72
2023-03-31T17:49:32.370Z,66.96
2023-03-31T17:52:02.729Z,66.13
2023-03-31T17:54:31.847Z,66.69
2023-03-31T17:57:03.131Z,66.91
2023-03-31T17:59:32.112Z,67.20
2023-03-31T18:02:03.147Z,67.41
2023-03-31T18:04:32.412Z,67.94
2023-03-31T18:07:06.309Z,67.42
2023-03-31T18:09:36.344Z,67.93
2023-03-31T18:12:06.064Z,67.86
2023-03-31T18:14:35.173Z,67.15
2023-03-31T18:17:04.478Z,68.05
2023-03-31T18:19:33.665Z,68.43
2023-03-31T18:22:05.371Z,68.07
2023-03-31T18:24:36.294Z,67.86
2023-03-31T18:27:05.994Z,68.21
2023-03-31T18:29:35.982Z,68.33
2023-03-31T18:32:06.540Z,68.96
2023-03-31T18:34:37.344Z,68.64
2023-03-31T18:37:07.559Z,68.41
2023-03-31T18:39:37.217Z,68.86
2023-03-31T18:42:07.217Z,68.68
2023-03-31T18:44:38.947Z,68.41
2023-03-31T18:47:08.611Z,68.80
2023-03-31T18:49:38.192Z,68.88
2023-03-31T18:52:07.250Z,69.14
2023-03-31T18:54:36.868Z,68.88
2023-03-31T18:57:06.746Z,68.99
2023-03-31T18:59:35.863Z,69.09
2023-03-31T19:02:09.959Z,68.99
2023-03-31T19:04:39.125Z,69.88
2023-03-31T19:07:08.318Z,69.85
2023-03-31T19:09:37.842Z,69.79
2023-03-31T19:12:08.136Z,69.86
2023-03-31T19:14:37.162Z,69.52
2023-03-31T19:17:09.597Z,69.78
2023-03-31T19:19:38.578Z,69.71
2023-03-31T19:22:07.923Z,70.73
2023-03-31T19:24:37.419Z,70.69
2023-03-31T19:27:07.034Z,70.13
2023-03-31T19:29:36.020Z,70.40
2023-03-31T19:32:06.623Z,70.40
2023-03-31T19:34:36.411Z,70.70
2023-03-31T19:37:05.577Z,70.03
2023-03-31T19:39:38.720Z,70.68
2023-03-31T19:42:07.824Z,70.67
2023-03-31T19:44:37.768Z,70.46
2023-03-31T19:47:07.052Z,71.08
2023-03-31T19:49:36.321Z,70.48
2023-03-31T19:52:05.652Z,70.88
2023-03-31T19:54:35.761Z,70.84
2023-03-31T19:57:05.184Z,70.98
2023-03-31T19:59:34.807Z,71.17
2023-03-31T20:02:04.962Z,71.69
2023-03-31T20:04:34.390Z,71.15
2023-03-31T20:07:03.743Z,71.13
2023-03-31T20:09:32.898Z,71.14
2023-03-31T20:12:02.096Z,71.76
2023-03-31T20:14:31.375Z,71.96
2023-03-31T20:17:02.324Z,71.70
2023-03-31T20:19:31.875Z,71.33
2023-03-31T20:22:02.511Z,71.46
2023-03-31T20:24:31.736Z,71.58
2023-03-31T20:27:01.225Z,72.03
2023-03-31T20:29:30.769Z,71.94
2023-03-31T20:32:02.176Z,72.33
2023-03-31T20:34:32.028Z,72.16
2023-03-31T20:37:02.785Z,72.02
2023-03-31T20:39:31.761Z,72.09
2023-03-31T20:42:01.190Z,72.51
2023-03-31T20:44:33.796Z,72.29
2023-03-31T20:47:03.378Z,72.25
2023-03-31T20:49:32.545Z,72.17
2023-03-31T20:52:04.317Z,72.34
2023-03-31T20:54:35.511Z,72.10
2023-03-31T20:57:06.814Z,72.45
2023-03-31T20:59:35.934Z,72.36
2023-03-31T21:02:05.639Z,72.75
2023-03-31T21:04:34.458Z,72.76
2023-03-31T21:07:03.437Z,72.54
2023-03-31T21:09:33.858Z,72.73
2023-03-31T21:12:04.353Z,72.63
2023-03-31T21:14:34.012Z,72.78
2023-03-31T21:17:03.976Z,72.75
2023-03-31T21:19:33.777Z,72.54
2023-03-31T21:22:03.537Z,72.64
2023-03-31T21:24:34.647Z,72.50
2023-03-31T21:27:05.150Z,72.99
2023-03-31T21:29:34.306Z,72.86
2023-03-31T21:32:06.614Z,72.52
2023-03-31T21:34:36.097Z,73.06
2023-03-31T21:37:06.337Z,72.86
2023-03-31T21:39:35.155Z,73.51
2023-03-31T21:42:04.467Z,72.61
2023-03-31T21:44:36.063Z,73.15
2023-03-31T21:47:05.879Z,72.91
2023-03-31T21:49:34.866Z,72.93
2023-03-31T21:52:06.017Z,73.47
2023-03-31T21:54:35.074Z,72.92
2023-03-31T21:57:05.265Z,73.74
2023-03-31T21:59:34.999Z,73.63
2023-03-31T22:02:06.522Z,73.71
2023-03-31T22:04:35.886Z,73.94
2023-03-31T22:07:05.205Z,73.70
2023-03-31T22:09:34.411Z,73.25
2023-03-31T22:12:04.007Z,73.23
2023-03-31T22:14:35.937Z,73.58
2023-03-31T22:17:06.347Z,73.45
2023-03-31T22:19:36.867Z,73.62
2023-03-31T22:22:06.070Z,73.92
2023-03-31T22:24:35.753Z,73.86
2023-03-31T22:27:06.956Z,74.26
2023-03-31T22:29:36.219Z,73.92
2023-03-31T22:32:06.245Z,73.94
2023-03-31T22:34:37.446Z,74.40
2023-03-31T22:37:06.446Z,73.92
2023-03-31T22:39:36.301Z,74.37
2023-03-31T22:42:05.942Z,73.64
2023-03-31T22:44:39.438Z,74.30
2023-03-31T22:47:08.752Z,74.39
2023-03-31T22:49:37.859Z,74.92
2023-03-31T22:52:06.832Z,73.87
2023-03-31T22:54:35.686Z,73.90
2023-03-31T22:57:04.694Z,74.91
2023-03-31T22:59:33.666Z,74.61
2023-03-31T23:02:02.835Z,74.39
2023-03-31T23:04:31.912Z,74.67
2023-03-31T23:07:01.408Z,74.23
2023-03-31T23:09:31.526Z,74.10
2023-03-31T23:12:00.770Z,74.79
2023-03-31T23:14:29.894Z,74.41
2023-03-31T23:16:58.735Z,74.28
2023-03-31T23:19:28.140Z,74.41
2023-03-31T23:21:57.914Z,74.77
2023-03-31T23:24:28.895Z,74.85
2023-03-31T23:26:57.738Z,74.59
2023-03-31T23:29:30.085Z,74.77
2023-03-31T23:31:58.913Z,74.60
2023-03-31T23:34:30.060Z,74.58
2023-03-31T23:36:59.044Z,75.01
2023-03-31T23:39:28.774Z,74.75
2023-03-31T23:41:58.386Z,75.35
2023-03-31T23:44:29.507Z,74.83
2023-03-31T23:46:58.643Z,74.84
2023-03-31T23:49:28.661Z,74.94
2023-03-31T23:51:57.430Z,75.24
2023-03-31T23:54:28.324Z,75.46
2023-03-31T23:56:57.501Z,75.29
2023-03-31T23:59:28.943Z,75.63
